createdAt,value
2019-05-07T00:01:55.133Z,16.10
2019-05-07T00:04:22.302Z,16.10
2019-05-07T00:06:46.436Z,16.20
2019-05-07T00:09:12.663Z,16.20
2019-05-07T00:11:38.886Z,16.10
2019-05-07T00:14:05.116Z,16.10
2019-05-07T00:16:32.506Z,16.20
2019-05-07T00:18:57.572Z,16.10
2019-05-07T00:21:23.796Z,16.10
2019-05-07T00:23:49.944Z,16.20
2019-05-07T00:26:16.253Z,16.10
2019-05-07T00:28:43.189Z,16.10
2019-05-07T00:31:08.710Z,16.10
2019-05-07T00:33:34.933Z,16.10
2019-05-07T00:36:02.612Z,16.20
2019-05-07T00:38:27.397Z,16.10
2019-05-07T00:40:53.625Z,16.10
2019-05-07T00:43:19.839Z,16.10
2019-05-07T00:45:46.090Z,16.20
2019-05-07T00:48:12.709Z,16.10
2019-05-07T00:50:38.532Z,16.10
2019-05-07T00:53:04.764Z,16.10
2019-05-07T00:55:32.568Z,16.10
2019-05-07T00:57:57.210Z,16.10
2019-05-07T01:00:23.444Z,16.10
2019-05-07T01:02:49.673Z,16.10
2019-05-07T01:05:15.898Z,16.10
2019-05-07T01:07:42.155Z,16.10
2019-05-07T01:10:08.352Z,16.10
2019-05-07T01:12:34.585Z,16.10
2019-05-07T01:15:02.925Z,16.20
2019-05-07T01:17:27.049Z,16.10
2019-05-07T01:19:53.453Z,16.10
2019-05-07T01:22:19.487Z,16.10
2019-05-07T01:24:45.723Z,16.10
2019-05-07T01:27:12.921Z,16.10
2019-05-07T01:29:38.177Z,16.10
2019-05-07T01:32:04.401Z,16.10
2019-05-07T01:34:32.294Z,16.10
2019-05-07T01:36:56.866Z,16.10
2019-05-07T01:39:23.490Z,16.10
2019-05-07T01:41:49.726Z,16.10
2019-05-07T01:44:15.978Z,16.20
2019-05-07T01:46:42.290Z,16.10
2019-05-07T01:49:08.404Z,16.10
2019-05-07T01:51:34.654Z,16.20
2019-05-07T01:54:02.267Z,16.20
2019-05-07T01:56:27.456Z,16.10
2019-05-07T01:58:53.725Z,16.10
2019-05-07T02:01:22.074Z,16.10
2019-05-07T02:03:46.184Z,16.10
2019-05-07T02:06:13.164Z,16.00
2019-05-07T02:08:38.655Z,16.00
2019-05-07T02:11:04.862Z,16.10
2019-05-07T02:13:31.080Z,16.10
2019-05-07T02:16:00.841Z,16.00
2019-05-07T02:18:23.541Z,16.10
2019-05-07T02:20:49.773Z,16.10
2019-05-07T02:23:15.991Z,16.10
2019-05-07T02:25:42.233Z,16.10
2019-05-07T02:28:08.450Z,16.10
2019-05-07T02:30:35.371Z,16.10
2019-05-07T02:33:03.703Z,16.10
2019-05-07T02:35:27.154Z,16.10
2019-05-07T02:37:56.600Z,16.10
2019-05-07T02:40:22.696Z,16.00
2019-05-07T02:42:45.821Z,16.00
2019-05-07T02:45:13.300Z,16.10
2019-05-07T02:47:38.273Z,16.00
2019-05-07T02:50:04.505Z,16.00
2019-05-07T02:52:32.451Z,16.10
2019-05-07T02:54:56.968Z,16.10
2019-05-07T02:57:24.104Z,16.10
2019-05-07T02:59:49.410Z,16.10
2019-05-07T03:02:15.636Z,16.10
2019-05-07T03:04:43.551Z,16.10
2019-05-07T03:07:08.102Z,16.10
2019-05-07T03:09:34.324Z,16.10
2019-05-07T03:12:03.752Z,16.00
2019-05-07T03:14:26.806Z,16.00
2019-05-07T03:16:53.935Z,16.00
2019-05-07T03:19:19.642Z,16.00
2019-05-07T03:21:45.869Z,16.10
2019-05-07T03:24:13.977Z,16.10
2019-05-07T03:26:38.341Z,16.00
2019-05-07T03:29:04.544Z,16.00
2019-05-07T03:31:36.035Z,16.00
2019-05-07T03:33:57.427Z,16.10
2019-05-07T03:36:26.096Z,16.00
2019-05-07T03:38:49.902Z,16.00
2019-05-07T03:41:17.324Z,16.00
2019-05-07T03:43:43.673Z,15.90
2019-05-07T03:46:09.753Z,16.00
2019-05-07T03:48:36.018Z,16.00
2019-05-07T03:51:03.735Z,16.10
2019-05-07T03:53:28.473Z,16.10
2019-05-07T03:55:54.705Z,16.10
2019-05-07T03:58:23.535Z,16.00
2019-05-07T04:00:47.576Z,16.00
2019-05-07T04:03:18.740Z,16.00
2019-05-07T04:05:43.055Z,16.00
2019-05-07T04:08:06.242Z,16.00
2019-05-07T04:10:33.832Z,16.00
2019-05-07T04:12:58.697Z,16.00
2019-05-07T04:15:24.958Z,16.10
2019-05-07T04:17:53.401Z,16.00
2019-05-07T04:20:17.381Z,16.00
2019-05-07T04:22:43.623Z,16.00
2019-05-07T04:25:13.117Z,16.00
2019-05-07T04:27:36.487Z,15.90
2019-05-07T04:30:03.609Z,15.90
2019-05-07T04:32:28.941Z,16.00
2019-05-07T04:34:55.147Z,16.00
2019-05-07T04:37:23.948Z,16.00
2019-05-07T04:39:47.646Z,16.00
2019-05-07T04:42:13.831Z,16.00
2019-05-07T04:44:40.068Z,16.00
2019-05-07T04:47:07.123Z,16.00
2019-05-07T04:49:33.408Z,15.90
2019-05-07T04:51:59.535Z,16.00
2019-05-07T04:54:25.801Z,16.00
2019-05-07T04:56:53.161Z,16.00
2019-05-07T04:59:18.254Z,16.00
2019-05-07T05:01:44.488Z,16.00
2019-05-07T05:04:25.790Z,16.00
2019-05-07T05:06:36.955Z,16.00
2019-05-07T05:09:03.234Z,16.00
2019-05-07T05:11:29.397Z,16.00
2019-05-07T05:13:55.622Z,16.00
2019-05-07T05:16:22.483Z,15.90
2019-05-07T05:18:48.503Z,15.80
2019-05-07T05:21:14.705Z,15.80
2019-05-07T05:23:41.917Z,15.90
2019-05-07T05:26:07.169Z,16.00
2019-05-07T05:28:33.389Z,16.00
2019-05-07T05:30:59.625Z,15.90
2019-05-07T05:33:27.073Z,15.90
2019-05-07T05:35:53.304Z,16.00
2019-05-07T05:38:21.949Z,16.00
2019-05-07T05:40:45.756Z,16.00
2019-05-07T05:43:12.708Z,16.10
2019-05-07T05:45:38.193Z,16.00
2019-05-07T05:48:08.090Z,16.00
2019-05-07T05:50:33.110Z,16.00
2019-05-07T05:52:57.314Z,16.00
2019-05-07T05:55:23.531Z,16.00
2019-05-07T05:57:51.867Z,16.00
2019-05-07T06:00:15.984Z,16.00
2019-05-07T06:02:44.095Z,16.00
2019-05-07T06:05:08.496Z,16.00
2019-05-07T06:07:34.666Z,16.00
2019-05-07T06:10:02.555Z,16.10
2019-05-07T06:12:27.127Z,16.10
2019-05-07T06:14:53.956Z,16.10
2019-05-07T06:17:19.580Z,16.10
2019-05-07T06:19:46.216Z,16.00
2019-05-07T06:22:12.909Z,16.10
2019-05-07T06:24:38.674Z,16.10
2019-05-07T06:27:04.846Z,16.10
2019-05-07T06:29:33.022Z,16.10
2019-05-07T06:31:57.363Z,16.10
2019-05-07T06:34:23.594Z,16.10
2019-05-07T06:36:49.813Z,16.00
2019-05-07T06:39:16.045Z,16.10
2019-05-07T06:41:42.268Z,16.00
2019-05-07T06:44:08.419Z,16.00
2019-05-07T06:46:34.717Z,16.00
2019-05-07T06:49:02.183Z,16.10
2019-05-07T06:51:27.184Z,16.10
2019-05-07T06:53:53.412Z,16.10
2019-05-07T06:56:19.639Z,16.00
2019-05-07T06:58:45.866Z,16.10
2019-05-07T07:01:12.226Z,16.10
2019-05-07T07:03:38.316Z,16.10
2019-05-07T07:06:04.564Z,16.10
2019-05-07T07:08:32.556Z,16.10
2019-05-07T07:10:56.998Z,16.10
2019-05-07T07:13:23.229Z,16.10
2019-05-07T07:15:49.466Z,16.10
2019-05-07T07:18:15.686Z,16.10
2019-05-07T07:20:42.995Z,16.10
2019-05-07T07:23:08.141Z,16.10
2019-05-07T07:25:34.361Z,16.10
2019-05-07T07:28:02.623Z,16.10
2019-05-07T07:30:26.823Z,16.10
2019-05-07T07:32:53.049Z,16.10
2019-05-07T07:35:19.276Z,16.10
2019-05-07T07:37:45.506Z,16.10
2019-05-07T07:40:12.931Z,16.10
2019-05-07T07:42:38.769Z,16.10
2019-05-07T07:45:05.047Z,16.10
2019-05-07T07:47:32.941Z,16.10
2019-05-07T07:49:57.463Z,16.10
2019-05-07T07:52:23.693Z,16.10
2019-05-07T07:54:49.950Z,16.20
2019-05-07T07:57:16.147Z,16.20
2019-05-07T07:59:42.486Z,16.10
2019-05-07T08:02:09.005Z,16.10
2019-05-07T08:04:35.232Z,16.10
2019-05-07T08:07:02.754Z,16.10
2019-05-07T08:09:27.700Z,16.10
2019-05-07T08:11:53.926Z,16.10
2019-05-07T08:14:21.928Z,16.10
2019-05-07T08:16:46.376Z,16.10
2019-05-07T08:19:21.776Z,16.10
2019-05-07T08:21:38.832Z,16.20
2019-05-07T08:24:05.054Z,16.10
2019-05-07T08:26:32.309Z,16.10
2019-05-07T08:28:57.517Z,16.10
2019-05-07T08:31:23.747Z,16.10
2019-05-07T08:33:51.780Z,16.10
2019-05-07T08:36:16.207Z,16.10
2019-05-07T08:38:42.674Z,16.10
2019-05-07T08:41:08.663Z,16.20
2019-05-07T08:43:34.886Z,16.10
2019-05-07T08:46:02.680Z,16.10
2019-05-07T08:48:27.342Z,16.20
2019-05-07T08:50:53.585Z,16.20
2019-05-07T08:53:19.791Z,16.20
2019-05-07T08:55:46.017Z,16.10
2019-05-07T08:58:12.245Z,16.10
2019-05-07T09:00:38.417Z,16.20
2019-05-07T09:03:04.712Z,16.20
2019-05-07T09:05:32.374Z,16.20
2019-05-07T09:07:57.157Z,16.20
2019-05-07T09:10:23.384Z,16.20
2019-05-07T09:12:49.642Z,16.10
2019-05-07T09:15:15.843Z,16.20
2019-05-07T09:17:42.419Z,16.20
2019-05-07T09:20:09.294Z,16.20
2019-05-07T09:22:34.528Z,16.20
2019-05-07T09:25:02.890Z,16.20
2019-05-07T09:27:27.409Z,16.10
2019-05-07T09:29:53.617Z,16.10
2019-05-07T09:32:20.718Z,16.10
2019-05-07T09:34:46.085Z,16.10
2019-05-07T09:37:12.484Z,16.10
2019-05-07T09:39:38.528Z,16.20
2019-05-07T09:42:04.759Z,16.20
2019-05-07T09:44:32.489Z,16.20
2019-05-07T09:46:57.212Z,16.10
2019-05-07T09:49:23.388Z,16.10
2019-05-07T09:51:51.801Z,16.10
2019-05-07T09:54:15.896Z,16.10
2019-05-07T09:56:42.316Z,16.10
2019-05-07T09:59:08.418Z,16.10
2019-05-07T10:01:34.989Z,16.10
2019-05-07T10:04:02.659Z,16.10
2019-05-07T10:06:27.454Z,16.10
2019-05-07T10:08:53.663Z,16.10
2019-05-07T10:11:19.893Z,16.10
2019-05-07T10:13:46.124Z,16.10
2019-05-07T10:16:12.847Z,16.20
2019-05-07T10:18:38.588Z,16.20
2019-05-07T10:21:04.810Z,16.20
2019-05-07T10:23:31.053Z,16.20
2019-05-07T10:25:57.271Z,16.10
2019-05-07T10:28:23.504Z,16.10
2019-05-07T10:30:51.646Z,16.20
2019-05-07T10:33:16.442Z,16.20
2019-05-07T10:35:43.456Z,16.20
2019-05-07T10:38:09.223Z,16.20
2019-05-07T10:40:35.453Z,16.20
2019-05-07T10:43:01.676Z,16.30
2019-05-07T10:45:27.908Z,16.20
2019-05-07T10:47:54.146Z,16.20
2019-05-07T10:50:34.567Z,16.30
2019-05-07T10:52:46.552Z,16.20
2019-05-07T10:55:12.828Z,16.30
2019-05-07T10:57:39.045Z,16.20
2019-05-07T11:00:05.274Z,16.30
2019-05-07T11:02:32.502Z,16.20
2019-05-07T11:04:57.738Z,16.20
2019-05-07T11:07:23.962Z,16.20
2019-05-07T11:09:52.362Z,16.20
2019-05-07T11:12:16.429Z,16.20
2019-05-07T11:14:42.646Z,16.20
2019-05-07T11:17:08.797Z,16.20
2019-05-07T11:19:35.100Z,16.20
2019-05-07T11:22:01.328Z,16.20
2019-05-07T11:24:27.558Z,16.20
2019-05-07T11:26:53.785Z,16.20
2019-05-07T11:29:21.991Z,16.20
2019-05-07T11:31:46.237Z,16.20
2019-05-07T11:34:13.895Z,16.20
2019-05-07T11:36:38.700Z,16.20
2019-05-07T11:39:04.929Z,16.20
2019-05-07T11:41:32.098Z,16.20
2019-05-07T11:43:57.394Z,16.20
2019-05-07T11:46:23.613Z,16.20
2019-05-07T11:48:49.837Z,16.20
2019-05-07T11:51:16.061Z,16.20
2019-05-07T11:53:42.284Z,16.20
2019-05-07T11:56:08.512Z,16.20
2019-05-07T11:58:34.750Z,16.20
2019-05-07T12:01:03.624Z,16.20
2019-05-07T12:03:27.196Z,16.20
2019-05-07T12:05:53.428Z,16.30
2019-05-07T12:08:19.661Z,16.20
2019-05-07T12:10:45.884Z,16.30
2019-05-07T12:13:12.805Z,16.30
2019-05-07T12:15:38.333Z,16.30
2019-05-07T12:18:04.573Z,16.30
2019-05-07T12:20:32.449Z,16.30
2019-05-07T12:22:57.037Z,16.30
2019-05-07T12:25:23.248Z,16.30
2019-05-07T12:27:49.476Z,16.20
2019-05-07T12:30:15.705Z,16.30
2019-05-07T12:32:42.748Z,16.30
2019-05-07T12:35:08.161Z,16.30
2019-05-07T12:37:34.387Z,16.30
2019-05-07T12:40:01.843Z,16.30
2019-05-07T12:42:26.853Z,16.30
2019-05-07T12:44:53.077Z,16.30
2019-05-07T12:47:19.301Z,16.30
2019-05-07T12:49:45.541Z,16.30
2019-05-07T12:52:12.703Z,16.30
2019-05-07T12:54:37.980Z,16.30
2019-05-07T12:57:04.202Z,16.30
2019-05-07T12:59:32.217Z,16.30
2019-05-07T13:01:57.069Z,16.30
2019-05-07T13:04:23.305Z,16.30
2019-05-07T13:06:49.531Z,16.30
2019-05-07T13:09:15.761Z,16.30
2019-05-07T13:11:42.497Z,16.30
2019-05-07T13:14:08.216Z,16.30
2019-05-07T13:16:34.445Z,16.30
2019-05-07T13:19:01.898Z,16.30
2019-05-07T13:21:26.922Z,16.30
2019-05-07T13:23:53.098Z,16.30
2019-05-07T13:26:19.359Z,16.30
2019-05-07T13:28:45.574Z,16.30
2019-05-07T13:31:12.550Z,16.30
2019-05-07T13:33:38.037Z,16.30
2019-05-07T13:36:04.273Z,16.30
2019-05-07T13:38:32.352Z,16.30
2019-05-07T13:40:57.135Z,16.30
2019-05-07T13:43:23.359Z,16.30
2019-05-07T13:45:49.588Z,16.30
2019-05-07T13:48:15.818Z,16.30
2019-05-07T13:50:42.084Z,16.40
2019-05-07T13:53:08.676Z,16.40
2019-05-07T13:55:34.909Z,16.40
2019-05-07T13:58:01.132Z,16.30
2019-05-07T14:00:27.356Z,16.40
2019-05-07T14:02:54.909Z,16.40
2019-05-07T14:05:21.742Z,16.40
2019-05-07T14:07:46.061Z,16.40
2019-05-07T14:10:12.742Z,16.40
2019-05-07T14:12:38.497Z,16.40
2019-05-07T14:15:04.723Z,16.50
2019-05-07T14:17:30.963Z,16.50
2019-05-07T14:19:57.205Z,16.40
2019-05-07T14:22:23.419Z,16.50
2019-05-07T14:24:49.641Z,16.40
2019-05-07T14:27:15.869Z,16.40
2019-05-07T14:29:42.427Z,16.40
2019-05-07T14:32:08.324Z,16.40
2019-05-07T14:34:35.102Z,16.40
2019-05-07T14:37:02.329Z,16.40
2019-05-07T14:39:27.431Z,16.40
2019-05-07T14:41:53.655Z,16.40
2019-05-07T14:44:22.357Z,16.40
2019-05-07T14:46:51.571Z,16.40
2019-05-07T14:49:15.572Z,16.40
2019-05-07T14:51:41.841Z,16.50
2019-05-07T14:54:08.064Z,16.40
2019-05-07T14:56:34.288Z,16.50
2019-05-07T14:59:02.311Z,16.50
2019-05-07T15:01:26.768Z,16.50
2019-05-07T15:03:52.982Z,16.50
2019-05-07T15:06:19.205Z,16.50
2019-05-07T15:08:45.432Z,16.40
2019-05-07T15:11:11.657Z,16.50
2019-05-07T15:13:37.885Z,16.50
2019-05-07T15:16:04.116Z,16.40
2019-05-07T15:18:32.217Z,16.50
2019-05-07T15:20:56.586Z,16.50
2019-05-07T15:23:22.812Z,16.40
2019-05-07T15:25:49.028Z,16.50
2019-05-07T15:28:15.261Z,16.50
2019-05-07T15:30:41.836Z,16.40
2019-05-07T15:33:07.713Z,16.50
2019-05-07T15:35:33.955Z,16.40
2019-05-07T15:38:02.271Z,16.40
2019-05-07T15:40:26.397Z,16.40
2019-05-07T15:42:52.664Z,16.40
2019-05-07T15:45:18.865Z,16.40
2019-05-07T15:47:45.086Z,16.40
2019-05-07T15:50:12.460Z,16.40
2019-05-07T15:52:37.541Z,16.40
2019-05-07T15:55:03.776Z,16.40
2019-05-07T15:57:29.988Z,16.30
2019-05-07T15:59:56.220Z,16.30
2019-05-07T16:02:22.651Z,16.30
2019-05-07T16:04:48.673Z,16.40
2019-05-07T16:07:14.897Z,16.30
2019-05-07T16:09:41.858Z,16.30
2019-05-07T16:12:07.360Z,16.30
2019-05-07T16:14:33.593Z,16.40
2019-05-07T16:16:59.809Z,16.30
2019-05-07T16:19:26.044Z,16.40
2019-05-07T16:21:52.261Z,16.30
2019-05-07T16:24:18.492Z,16.30
2019-05-07T16:26:44.733Z,16.40
2019-05-07T16:29:13.033Z,16.40
2019-05-07T16:31:37.197Z,16.40
2019-05-07T16:34:03.413Z,16.40
2019-05-07T16:36:29.636Z,16.30
2019-05-07T16:38:55.877Z,16.30
2019-05-07T16:41:22.439Z,16.40
2019-05-07T16:43:48.341Z,16.40
2019-05-07T16:46:14.554Z,16.40
2019-05-07T16:48:40.780Z,16.40
2019-05-07T16:51:07.008Z,16.40
2019-05-07T16:53:35.314Z,16.40
2019-05-07T16:55:59.464Z,16.40
2019-05-07T16:58:25.689Z,16.40
2019-05-07T17:00:52.858Z,16.40
2019-05-07T17:03:18.156Z,16.40
2019-05-07T17:05:44.432Z,16.40
2019-05-07T17:08:10.608Z,16.40
2019-05-07T17:10:36.829Z,16.40
2019-05-07T17:13:09.662Z,16.40
2019-05-07T17:15:32.968Z,16.40
2019-05-07T17:17:59.239Z,16.40
2019-05-07T17:20:25.442Z,16.40
2019-05-07T17:22:51.993Z,16.40
2019-05-07T17:25:17.894Z,16.40
2019-05-07T17:27:44.617Z,16.30
2019-05-07T17:30:11.764Z,16.30
2019-05-07T17:32:37.796Z,16.40
2019-05-07T17:35:04.053Z,16.40
2019-05-07T17:37:30.256Z,16.40
2019-05-07T17:39:56.482Z,16.40
2019-05-07T17:42:22.721Z,16.40
2019-05-07T17:44:49.010Z,16.40
2019-05-07T17:47:15.168Z,16.40
2019-05-07T17:49:41.797Z,16.40
2019-05-07T17:52:09.922Z,16.40
2019-05-07T17:54:33.856Z,16.40
2019-05-07T17:57:01.971Z,16.40
2019-05-07T17:59:26.283Z,16.40
2019-05-07T18:01:53.024Z,16.40
2019-05-07T18:04:18.765Z,16.40
2019-05-07T18:06:44.996Z,16.40
2019-05-07T18:09:12.160Z,16.30
2019-05-07T18:11:37.465Z,16.40
2019-05-07T18:14:03.685Z,16.40
2019-05-07T18:16:29.913Z,16.40
2019-05-07T18:18:56.134Z,16.30
2019-05-07T18:21:22.360Z,16.40
2019-05-07T18:23:48.672Z,16.40
2019-05-07T18:26:27.115Z,16.40
2019-05-07T18:28:41.760Z,16.40
2019-05-07T18:31:07.694Z,16.40
2019-05-07T18:33:33.921Z,16.40
2019-05-07T18:36:00.149Z,16.40
2019-05-07T18:38:26.374Z,16.40
2019-05-07T18:40:52.859Z,16.40
2019-05-07T18:43:18.840Z,16.40
2019-05-07T18:45:45.053Z,16.40
2019-05-07T18:48:11.888Z,16.40
2019-05-07T18:50:37.931Z,16.40
2019-05-07T18:53:04.147Z,16.40
2019-05-07T18:55:30.382Z,16.40
2019-05-07T18:57:56.604Z,16.40
2019-05-07T19:00:22.833Z,16.40
2019-05-07T19:02:49.060Z,16.40
2019-05-07T19:05:15.288Z,16.40
2019-05-07T19:07:41.731Z,16.40
2019-05-07T19:10:07.746Z,16.40
2019-05-07T19:12:33.925Z,16.40
2019-05-07T19:15:02.730Z,16.40
2019-05-07T19:17:26.507Z,16.40
2019-05-07T19:19:53.069Z,16.40
2019-05-07T19:22:19.301Z,16.50
2019-05-07T19:24:48.174Z,16.40
2019-05-07T19:27:12.638Z,16.50
2019-05-07T19:29:37.976Z,16.50
2019-05-07T19:32:04.222Z,16.50
2019-05-07T19:34:32.375Z,16.50
2019-05-07T19:36:56.661Z,16.50
2019-05-07T19:39:23.535Z,16.50
2019-05-07T19:41:49.139Z,16.50
2019-05-07T19:44:15.348Z,16.40
2019-05-07T19:46:41.579Z,16.50
2019-05-07T19:49:07.803Z,16.50
2019-05-07T19:51:34.030Z,16.50
2019-05-07T19:54:02.104Z,16.50
2019-05-07T19:56:26.499Z,16.50
2019-05-07T19:58:52.840Z,16.50
2019-05-07T20:01:18.958Z,16.40
2019-05-07T20:03:45.193Z,16.40
2019-05-07T20:06:12.865Z,16.40
2019-05-07T20:08:37.617Z,16.40
2019-05-07T20:11:03.840Z,16.50
2019-05-07T20:13:31.900Z,16.50
2019-05-07T20:15:56.341Z,16.50
2019-05-07T20:18:22.545Z,16.40
2019-05-07T20:20:48.756Z,16.50
2019-05-07T20:23:14.997Z,16.50
2019-05-07T20:25:42.044Z,16.50
2019-05-07T20:28:07.440Z,16.50
2019-05-07T20:30:33.667Z,16.50
2019-05-07T20:32:59.896Z,16.50
2019-05-07T20:35:26.121Z,16.50
2019-05-07T20:37:52.349Z,16.50
2019-05-07T20:40:18.592Z,16.50
2019-05-07T20:42:44.814Z,16.50
2019-05-07T20:45:12.276Z,16.50
2019-05-07T20:47:37.290Z,16.40
2019-05-07T20:50:03.496Z,16.40
2019-05-07T20:52:29.725Z,16.40
2019-05-07T20:54:55.946Z,16.40
2019-05-07T20:57:22.586Z,16.40
2019-05-07T20:59:48.407Z,16.40
2019-05-07T21:02:14.629Z,16.40
2019-05-07T21:04:42.461Z,16.40
2019-05-07T21:07:07.089Z,16.50
2019-05-07T21:09:33.313Z,16.40
2019-05-07T21:11:59.558Z,16.40
2019-05-07T21:14:26.183Z,16.40
2019-05-07T21:16:52.412Z,16.40
2019-05-07T21:19:18.636Z,16.40
2019-05-07T21:21:44.884Z,16.40
2019-05-07T21:24:13.083Z,16.30
2019-05-07T21:26:37.322Z,16.40
2019-05-07T21:29:03.544Z,16.40
2019-05-07T21:31:32.042Z,16.40
2019-05-07T21:33:56.010Z,16.40
2019-05-07T21:36:22.826Z,16.40
2019-05-07T21:38:48.467Z,16.40
2019-05-07T21:41:14.679Z,16.40
2019-05-07T21:43:44.072Z,16.30
2019-05-07T21:46:07.142Z,16.30
2019-05-07T21:48:33.372Z,16.40
2019-05-07T21:50:59.592Z,16.40
2019-05-07T21:53:25.816Z,16.40
2019-05-07T21:55:59.918Z,16.40
2019-05-07T21:58:18.281Z,16.30
2019-05-07T22:00:44.513Z,16.40
2019-05-07T22:03:12.504Z,16.30
2019-05-07T22:05:36.965Z,16.40
2019-05-07T22:08:03.185Z,16.40
2019-05-07T22:10:29.420Z,16.30
2019-05-07T22:12:55.645Z,16.40
2019-05-07T22:15:22.462Z,16.30
2019-05-07T22:17:48.109Z,16.30
2019-05-07T22:20:14.346Z,16.30
2019-05-07T22:22:42.249Z,16.30
2019-05-07T22:25:06.785Z,16.20
2019-05-07T22:27:33.016Z,16.30
2019-05-07T22:29:59.244Z,16.30
2019-05-07T22:32:25.472Z,16.30
2019-05-07T22:34:52.104Z,16.30
2019-05-07T22:37:17.929Z,16.30
2019-05-07T22:39:44.145Z,16.20
2019-05-07T22:42:11.924Z,16.30
2019-05-07T22:44:36.633Z,16.30
2019-05-07T22:47:02.849Z,16.30
2019-05-07T22:49:29.069Z,16.20
2019-05-07T22:51:55.251Z,16.20
2019-05-07T22:54:22.607Z,16.30
2019-05-07T22:56:47.747Z,16.30
2019-05-07T22:59:14.725Z,16.30
2019-05-07T23:01:42.158Z,16.30
2019-05-07T23:04:06.442Z,16.30
2019-05-07T23:06:32.660Z,16.30
2019-05-07T23:08:58.891Z,16.30
2019-05-07T23:11:25.115Z,16.30
2019-05-07T23:13:52.411Z,16.30
2019-05-07T23:16:17.572Z,16.30
2019-05-07T23:18:43.787Z,16.30
2019-05-07T23:21:10.026Z,16.20
2019-05-07T23:23:36.253Z,16.30
2019-05-07T23:26:02.975Z,16.30
2019-05-07T23:28:28.710Z,16.20
2019-05-07T23:30:54.932Z,16.30
2019-05-07T23:33:22.625Z,16.30
2019-05-07T23:35:47.425Z,16.20
2019-05-07T23:38:15.898Z,16.20
2019-05-07T23:40:41.773Z,16.30
2019-05-07T23:43:06.079Z,16.30
2019-05-07T23:45:32.301Z,16.30
2019-05-07T23:47:58.538Z,16.30
2019-05-07T23:50:24.756Z,16.30
2019-05-07T23:52:52.717Z,16.20
2019-05-07T23:55:17.218Z,16.20
2019-05-07T23:57:43.438Z,16.20
